sensor_id;sensor_type;location;lat;lon;timestamp;pressure;altitude;pressure_sealevel;temperature
62845;BMP280;48929;47.910;20.390;2022-10-31T00:01:39;100040.09;;;12.59
62845;BMP280;48929;47.910;20.390;2022-10-31T00:04:08;100040.88;;;12.59
62845;BMP280;48929;47.910;20.390;2022-10-31T00:06:38;100032.03;;;12.60
62845;BMP280;48929;47.910;20.390;2022-10-31T00:09:06;100032.03;;;12.60
62845;BMP280;48929;47.910;20.390;2022-10-31T00:11:35;100032.03;;;12.60
62845;BMP280;48929;47.910;20.390;2022-10-31T00:14:04;100026.38;;;12.58
62845;BMP280;48929;47.910;20.390;2022-10-31T00:16:32;100035.44;;;12.56
62845;BMP280;48929;47.910;20.390;2022-10-31T00:19:02;100035.44;;;12.56
62845;BMP280;48929;47.910;20.390;2022-10-31T00:21:31;100038.28;;;12.54
62845;BMP280;48929;47.910;20.390;2022-10-31T00:24:01;100033.91;;;12.55
62845;BMP280;48929;47.910;20.390;2022-10-31T00:26:31;100037.00;;;12.57
62845;BMP280;48929;47.910;20.390;2022-10-31T00:29:00;100026.91;;;12.55
62845;BMP280;48929;47.910;20.390;2022-10-31T00:31:29;100025.09;;;12.56
62845;BMP280;48929;47.910;20.390;2022-10-31T00:33:58;100024.88;;;12.52
62845;BMP280;48929;47.910;20.390;2022-10-31T00:36:29;100016.88;;;12.49
62845;BMP280;48929;47.910;20.390;2022-10-31T00:38:58;100024.63;;;12.49
62845;BMP280;48929;47.910;20.390;2022-10-31T00:41:29;100019.72;;;12.47
62845;BMP280;48929;47.910;20.390;2022-10-31T00:43:57;100022.81;;;12.49
62845;BMP280;48929;47.910;20.390;2022-10-31T00:46:26;100021.00;;;12.50
62845;BMP280;48929;47.910;20.390;2022-10-31T00:48:55;100016.59;;;12.50
62845;BMP280;48929;47.910;20.390;2022-10-31T00:51:23;100019.97;;;12.51
62845;BMP280;48929;47.910;20.390;2022-10-31T00:53:51;100022.03;;;12.49
62845;BMP280;48929;47.910;20.390;2022-10-31T00:56:20;100022.81;;;12.49
62845;BMP280;48929;47.910;20.390;2022-10-31T00:58:50;100030.84;;;12.48
62845;BMP280;48929;47.910;20.390;2022-10-31T01:01:19;100022.31;;;12.47
62845;BMP280;48929;47.910;20.390;2022-10-31T01:03:48;100022.56;;;12.45
62845;BMP280;48929;47.910;20.390;2022-10-31T01:06:16;100013.78;;;12.46
62845;BMP280;48929;47.910;20.390;2022-10-31T01:08:46;100013.00;;;12.46
62845;BMP280;48929;47.910;20.390;2022-10-31T01:11:17;100013.00;;;12.46
62845;BMP280;48929;47.910;20.390;2022-10-31T01:13:46;100017.91;;;12.48
62845;BMP280;48929;47.910;20.390;2022-10-31T01:16:19;100017.91;;;12.48
62845;BMP280;48929;47.910;20.390;2022-10-31T01:18:48;100013.00;;;12.46
62845;BMP280;48929;47.910;20.390;2022-10-31T01:21:19;100014.53;;;12.47
62845;BMP280;48929;47.910;20.390;2022-10-31T01:23:47;100013.78;;;12.46
62845;BMP280;48929;47.910;20.390;2022-10-31T01:26:17;100011.50;;;12.45
62845;BMP280;48929;47.910;20.390;2022-10-31T01:28:48;100014.63;;;12.42
62845;BMP280;48929;47.910;20.390;2022-10-31T01:31:20;100005.56;;;12.39
62845;BMP280;48929;47.910;20.390;2022-10-31T01:33:50;100009.22;;;12.38
62845;BMP280;48929;47.910;20.390;2022-10-31T01:36:21;100006.88;;;12.37
62845;BMP280;48929;47.910;20.390;2022-10-31T01:38:50;100000.94;;;12.36
62845;BMP280;48929;47.910;20.390;2022-10-31T01:41:21;100012.06;;;12.37
62845;BMP280;48929;47.910;20.390;2022-10-31T01:43:52;100007.66;;;12.37
62845;BMP280;48929;47.910;20.390;2022-10-31T01:46:25;100013.63;;;12.38
62845;BMP280;48929;47.910;20.390;2022-10-31T01:48:55;100015.69;;;12.36
62845;BMP280;48929;47.910;20.390;2022-10-31T01:51:28;100015.69;;;12.36
62845;BMP280;48929;47.910;20.390;2022-10-31T01:54:01;100020.34;;;12.34
62845;BMP280;48929;47.910;20.390;2022-10-31T01:56:30;100010.50;;;12.36
62845;BMP280;48929;47.910;20.390;2022-10-31T01:59:00;100010.78;;;12.34
62845;BMP280;48929;47.910;20.390;2022-10-31T02:01:30;100017.50;;;12.35
62845;BMP280;48929;47.910;20.390;2022-10-31T02:03:59;100025.50;;;12.34
62845;BMP280;48929;47.910;20.390;2022-10-31T02:06:34;100027.06;;;12.35
62845;BMP280;48929;47.910;20.390;2022-10-31T02:09:04;100027.84;;;12.35
62845;BMP280;48929;47.910;20.390;2022-10-31T02:11:34;100022.41;;;12.37
62845;BMP280;48929;47.910;20.390;2022-10-31T02:14:04;100021.38;;;12.38
62845;BMP280;48929;47.910;20.390;2022-10-31T02:16:34;100019.03;;;12.36
62845;BMP280;48929;47.910;20.390;2022-10-31T02:19:04;100014.91;;;12.35
62845;BMP280;48929;47.910;20.390;2022-10-31T02:21:40;100018.28;;;12.36
62845;BMP280;48929;47.910;20.390;2022-10-31T02:24:32;100019.03;;;12.36
62845;BMP280;48929;47.910;20.390;2022-10-31T02:27:11;100013.09;;;12.36
62845;BMP280;48929;47.910;20.390;2022-10-31T02:29:55;100009.75;;;12.35
62845;BMP280;48929;47.910;20.390;2022-10-31T02:32:38;100013.09;;;12.36
62845;BMP280;48929;47.910;20.390;2022-10-31T02:35:15;100007.16;;;12.35
62845;BMP280;48929;47.910;20.390;2022-10-31T02:37:50;100010.78;;;12.34
62845;BMP280;48929;47.910;20.390;2022-10-31T02:40:23;99998.63;;;12.35
62845;BMP280;48929;47.910;20.390;2022-10-31T02:43:00;99996.81;;;12.35
62845;BMP280;48929;47.910;20.390;2022-10-31T02:45:35;100001.97;;;12.35
62845;BMP280;48929;47.910;20.390;2022-10-31T02:48:10;99998.63;;;12.35
62845;BMP280;48929;47.910;20.390;2022-10-31T02:50:43;100007.16;;;12.35
62845;BMP280;48929;47.910;20.390;2022-10-31T02:53:14;100004.81;;;12.34
62845;BMP280;48929;47.910;20.390;2022-10-31T02:55:55;100006.63;;;12.33
62845;BMP280;48929;47.910;20.390;2022-10-31T02:58:26;100009.00;;;12.30
62845;BMP280;48929;47.910;20.390;2022-10-31T03:04:21;100008.00;;;12.21
62845;BMP280;48929;47.910;20.390;2022-10-31T03:06:54;100008.28;;;12.19
62845;BMP280;48929;47.910;20.390;2022-10-31T03:09:30;100005.41;;;12.21
62845;BMP280;48929;47.910;20.390;2022-10-31T03:12:06;100020.66;;;12.22
62845;BMP280;48929;47.910;20.390;2022-10-31T03:14:41;100020.66;;;12.22
62845;BMP280;48929;47.910;20.390;2022-10-31T03:17:15;100021.44;;;12.23
62845;BMP280;48929;47.910;20.390;2022-10-31T03:19:49;100021.44;;;12.23
62845;BMP280;48929;47.910;20.390;2022-10-31T03:22:22;100021.44;;;12.23
62845;BMP280;48929;47.910;20.390;2022-10-31T03:24:52;100018.34;;;12.21
62845;BMP280;48929;47.910;20.390;2022-10-31T03:27:24;100025.59;;;12.19
62845;BMP280;48929;47.910;20.390;2022-10-31T03:29:55;100021.00;;;12.16
62845;BMP280;48929;47.910;20.390;2022-10-31T03:32:26;100029.50;;;12.16
62845;BMP280;48929;47.910;20.390;2022-10-31T03:34:59;100031.59;;;12.14
62845;BMP280;48929;47.910;20.390;2022-10-31T03:37:31;100028.75;;;12.16
62845;BMP280;48929;47.910;20.390;2022-10-31T03:40:03;100031.31;;;12.16
62845;BMP280;48929;47.910;20.390;2022-10-31T03:42:34;100033.91;;;12.16
62845;BMP280;48929;47.910;20.390;2022-10-31T03:45:08;100043.47;;;12.15
62845;BMP280;48929;47.910;20.390;2022-10-31T03:47:38;100036.50;;;12.16
62845;BMP280;48929;47.910;20.390;2022-10-31T03:50:10;100036.25;;;12.17
62845;BMP280;48929;47.910;20.390;2022-10-31T03:52:44;100034.13;;;12.19
62845;BMP280;48929;47.910;20.390;2022-10-31T03:55:18;100036.72;;;12.19
62845;BMP280;48929;47.910;20.390;2022-10-31T03:57:51;100030.00;;;12.18
62845;BMP280;48929;47.910;20.390;2022-10-31T04:00:21;100042.19;;;12.18
62845;BMP280;48929;47.910;20.390;2022-10-31T04:02:53;100041.41;;;12.17
62845;BMP280;48929;47.910;20.390;2022-10-31T04:05:26;100044.00;;;12.17
62845;BMP280;48929;47.910;20.390;2022-10-31T04:07:57;100047.88;;;12.15
62845;BMP280;48929;47.910;20.390;2022-10-31T04:10:27;100053.28;;;12.13
62845;BMP280;48929;47.910;20.390;2022-10-31T04:13:03;100034.97;;;12.10
62845;BMP280;48929;47.910;20.390;2022-10-31T04:15:35;100040.13;;;12.10
62845;BMP280;48929;47.910;20.390;2022-10-31T04:18:05;100053.84;;;12.10
62845;BMP280;48929;47.910;20.390;2022-10-31T04:20:37;100041.19;;;12.09
62845;BMP280;48929;47.910;20.390;2022-10-31T04:23:15;100036.25;;;12.07
62845;BMP280;48929;47.910;20.390;2022-10-31T04:25:45;100037.81;;;12.08
62845;BMP280;48929;47.910;20.390;2022-10-31T04:28:14;100040.41;;;12.08
62845;BMP280;48929;47.910;20.390;2022-10-31T04:30:42;100042.22;;;12.08
62845;BMP280;48929;47.910;20.390;2022-10-31T04:33:11;100041.19;;;12.09
62845;BMP280;48929;47.910;20.390;2022-10-31T04:35:41;100043.50;;;12.10
62845;BMP280;48929;47.910;20.390;2022-10-31T04:38:09;100039.06;;;12.11
62845;BMP280;48929;47.910;20.390;2022-10-31T04:40:38;100034.69;;;12.11
62845;BMP280;48929;47.910;20.390;2022-10-31T04:43:06;100044.25;;;12.11
62845;BMP280;48929;47.910;20.390;2022-10-31T04:45:35;100035.47;;;12.12
62845;BMP280;48929;47.910;20.390;2022-10-31T04:48:04;100039.59;;;12.13
62845;BMP280;48929;47.910;20.390;2022-10-31T04:50:32;100040.38;;;12.13
62845;BMP280;48929;47.910;20.390;2022-10-31T04:53:02;100035.19;;;12.13
62845;BMP280;48929;47.910;20.390;2022-10-31T04:55:30;100045.53;;;12.13
62845;BMP280;48929;47.910;20.390;2022-10-31T04:57:59;100036.75;;;12.14
62845;BMP280;48929;47.910;20.390;2022-10-31T05:00:29;100034.44;;;12.13
62845;BMP280;48929;47.910;20.390;2022-10-31T05:02:58;100036.25;;;12.12
62845;BMP280;48929;47.910;20.390;2022-10-31T05:05:29;100030.28;;;12.12
62845;BMP280;48929;47.910;20.390;2022-10-31T05:07:58;100034.97;;;12.10
62845;BMP280;48929;47.910;20.390;2022-10-31T05:10:29;100031.06;;;12.12
62845;BMP280;48929;47.910;20.390;2022-10-31T05:12:59;100035.47;;;12.12
62845;BMP280;48929;47.910;20.390;2022-10-31T05:15:29;100039.59;;;12.13
62845;BMP280;48929;47.910;20.390;2022-10-31T05:18:01;100041.16;;;12.14
62845;BMP280;48929;47.910;20.390;2022-10-31T05:20:30;100046.56;;;12.12
62845;BMP280;48929;47.910;20.390;2022-10-31T05:23:00;100041.41;;;12.12
62845;BMP280;48929;47.910;20.390;2022-10-31T05:25:30;100051.47;;;12.14
62845;BMP280;48929;47.910;20.390;2022-10-31T05:27:58;100056.66;;;12.14
62845;BMP280;48929;47.910;20.390;2022-10-31T05:30:29;100055.09;;;12.13
62845;BMP280;48929;47.910;20.390;2022-10-31T05:32:58;100061.84;;;12.09
62845;BMP280;48929;47.910;20.390;2022-10-31T05:35:29;100063.66;;;12.08
62845;BMP280;48929;47.910;20.390;2022-10-31T05:38:02;100065.47;;;12.08
62845;BMP280;48929;47.910;20.390;2022-10-31T05:40:32;100080.19;;;12.07
62845;BMP280;48929;47.910;20.390;2022-10-31T05:43:00;100067.28;;;12.02
62845;BMP280;48929;47.910;20.390;2022-10-31T05:45:29;100079.44;;;12.01
62845;BMP280;48929;47.910;20.390;2022-10-31T05:48:00;100082.03;;;12.01
62845;BMP280;48929;47.910;20.390;2022-10-31T05:50:31;100080.47;;;12.00
62845;BMP280;48929;47.910;20.390;2022-10-31T05:53:01;100087.19;;;12.01
62845;BMP280;48929;47.910;20.390;2022-10-31T05:55:32;100083.06;;;12.00
62845;BMP280;48929;47.910;20.390;2022-10-31T05:58:01;100087.97;;;12.02
62845;BMP280;48929;47.910;20.390;2022-10-31T06:00:30;100085.09;;;12.03
62845;BMP280;48929;47.910;20.390;2022-10-31T06:03:02;100078.91;;;12.04
62845;BMP280;48929;47.910;20.390;2022-10-31T06:05:35;100081.22;;;12.06
62845;BMP280;48929;47.910;20.390;2022-10-31T06:08:04;100088.72;;;12.08
62845;BMP280;48929;47.910;20.390;2022-10-31T06:10:35;100088.72;;;12.08
62845;BMP280;48929;47.910;20.390;2022-10-31T06:13:03;100091.31;;;12.08
62845;BMP280;48929;47.910;20.390;2022-10-31T06:15:33;100091.81;;;12.10
62845;BMP280;48929;47.910;20.390;2022-10-31T06:18:03;100094.88;;;12.12
62845;BMP280;48929;47.910;20.390;2022-10-31T06:20:32;100096.69;;;12.11
62845;BMP280;48929;47.910;20.390;2022-10-31T06:23:02;100100.84;;;12.12
62845;BMP280;48929;47.910;20.390;2022-10-31T06:25:31;100102.16;;;12.10
62845;BMP280;48929;47.910;20.390;2022-10-31T06:28:02;100104.22;;;12.08
62845;BMP280;48929;47.910;20.390;2022-10-31T06:30:30;100102.66;;;12.07
62845;BMP280;48929;47.910;20.390;2022-10-31T06:33:05;100109.66;;;12.06
62845;BMP280;48929;47.910;20.390;2022-10-31T06:35:33;100111.19;;;12.07
62845;BMP280;48929;47.910;20.390;2022-10-31T06:38:05;100112.50;;;12.10
62845;BMP280;48929;47.910;20.390;2022-10-31T06:40:36;100118.91;;;12.12
62845;BMP280;48929;47.910;20.390;2022-10-31T06:43:06;100110.91;;;12.14
62845;BMP280;48929;47.910;20.390;2022-10-31T06:45:35;100115.06;;;12.15
62845;BMP280;48929;47.910;20.390;2022-10-31T06:48:04;100118.16;;;12.17
62845;BMP280;48929;47.910;20.390;2022-10-31T06:50:49;100122.81;;;12.15
62845;BMP280;48929;47.910;20.390;2022-10-31T06:53:24;100121.00;;;12.15
62845;BMP280;48929;47.910;20.390;2022-10-31T06:55:52;100124.09;;;12.17
62845;BMP280;48929;47.910;20.390;2022-10-31T06:58:23;100123.28;;;12.22
62845;BMP280;48929;47.910;20.390;2022-10-31T07:00:52;100124.81;;;12.23
62845;BMP280;48929;47.910;20.390;2022-10-31T07:03:20;100125.59;;;12.23
62845;BMP280;48929;47.910;20.390;2022-10-31T07:05:49;100122.47;;;12.26
62845;BMP280;48929;47.910;20.390;2022-10-31T07:08:20;100122.72;;;12.30
62845;BMP280;48929;47.910;20.390;2022-10-31T07:10:51;100121.41;;;12.32
62845;BMP280;48929;47.910;20.390;2022-10-31T07:13:20;100125.81;;;12.37
62845;BMP280;48929;47.910;20.390;2022-10-31T07:15:54;100125.56;;;12.38
62845;BMP280;48929;47.910;20.390;2022-10-31T07:18:22;100134.81;;;12.39
62845;BMP280;48929;47.910;20.390;2022-10-31T07:20:54;100128.41;;;12.37
62845;BMP280;48929;47.910;20.390;2022-10-31T07:23:23;100127.34;;;12.38
62845;BMP280;48929;47.910;20.390;2022-10-31T07:25:54;100138.69;;;12.42
62845;BMP280;48929;47.910;20.390;2022-10-31T07:28:24;100134.81;;;12.44
62845;BMP280;48929;47.910;20.390;2022-10-31T07:30:56;100136.06;;;12.47
62845;BMP280;48929;47.910;20.390;2022-10-31T07:33:25;100125.19;;;12.50
62845;BMP280;48929;47.910;20.390;2022-10-31T07:35:54;100123.13;;;12.52
62845;BMP280;48929;47.910;20.390;2022-10-31T07:38:24;100121.59;;;12.51
62845;BMP280;48929;47.910;20.390;2022-10-31T07:40:53;100133.44;;;12.57
62845;BMP280;48929;47.910;20.390;2022-10-31T07:43:28;100133.69;;;12.61
62845;BMP280;48929;47.910;20.390;2022-10-31T07:46:37;100123.88;;;12.58
62845;BMP280;48929;47.910;20.390;2022-10-31T07:49:08;100130.78;;;12.67
62845;BMP280;48929;47.910;20.390;2022-10-31T07:51:37;100134.94;;;12.68
62845;BMP280;48929;47.910;20.390;2022-10-31T07:54:12;100134.41;;;12.66
62845;BMP280;48929;47.910;20.390;2022-10-31T07:56:42;100132.91;;;12.65
62845;BMP280;48929;47.910;20.390;2022-10-31T07:59:10;100128.72;;;12.69
62845;BMP280;48929;47.910;20.390;2022-10-31T08:01:40;100118.59;;;12.73
62845;BMP280;48929;47.910;20.390;2022-10-31T08:04:08;100125.28;;;12.79
62845;BMP280;48929;47.910;20.390;2022-10-31T08:06:39;100124.47;;;12.83
62845;BMP280;48929;47.910;20.390;2022-10-31T08:09:08;100132.47;;;12.87
62845;BMP280;48929;47.910;20.390;2022-10-31T08:11:37;100126.78;;;12.90
62845;BMP280;48929;47.910;20.390;2022-10-31T08:14:05;100128.31;;;12.91
62845;BMP280;48929;47.910;20.390;2022-10-31T08:16:34;100130.34;;;12.94
62845;BMP280;48929;47.910;20.390;2022-10-31T08:19:04;100120.78;;;12.95
62845;BMP280;48929;47.910;20.390;2022-10-31T08:21:32;100124.16;;;12.95
62845;BMP280;48929;47.910;20.390;2022-10-31T08:24:00;100132.69;;;12.96
62845;BMP280;48929;47.910;20.390;2022-10-31T08:26:29;100123.63;;;12.93
62845;BMP280;48929;47.910;20.390;2022-10-31T08:28:57;100132.47;;;12.92
62845;BMP280;48929;47.910;20.390;2022-10-31T08:31:27;100131.69;;;12.92
62845;BMP280;48929;47.910;20.390;2022-10-31T08:34:00;100129.34;;;12.90
62845;BMP280;48929;47.910;20.390;2022-10-31T08:36:31;100129.63;;;12.88
62845;BMP280;48929;47.910;20.390;2022-10-31T08:39:01;100126.81;;;12.85
62845;BMP280;48929;47.910;20.390;2022-10-31T08:41:30;100133.53;;;12.86
62845;BMP280;48929;47.910;20.390;2022-10-31T08:44:01;100135.06;;;12.87
62845;BMP280;48929;47.910;20.390;2022-10-31T08:46:30;100135.06;;;12.87
62845;BMP280;48929;47.910;20.390;2022-10-31T08:48:59;100134.53;;;12.90
62845;BMP280;48929;47.910;20.390;2022-10-31T08:51:27;100135.81;;;12.93
62845;BMP280;48929;47.910;20.390;2022-10-31T08:54:02;100141.47;;;12.95
62845;BMP280;48929;47.910;20.390;2022-10-31T08:56:31;100135.28;;;12.96
62845;BMP280;48929;47.910;20.390;2022-10-31T08:59:00;100138.13;;;12.94
62845;BMP280;48929;47.910;20.390;2022-10-31T09:01:28;100137.59;;;12.97
62845;BMP280;48929;47.910;20.390;2022-10-31T09:03:57;100142.19;;;13.00
62845;BMP280;48929;47.910;20.390;2022-10-31T09:06:26;100147.63;;;13.04
62845;BMP280;48929;47.910;20.390;2022-10-31T09:08:54;100150.72;;;13.06
62845;BMP280;48929;47.910;20.390;2022-10-31T09:11:25;100150.44;;;13.07
62845;BMP280;48929;47.910;20.390;2022-10-31T09:13:54;100154.03;;;13.11
62845;BMP280;48929;47.910;20.390;2022-10-31T09:16:23;100153.78;;;13.13
62845;BMP280;48929;47.910;20.390;2022-10-31T09:18:51;100161.53;;;13.13
62845;BMP280;48929;47.910;20.390;2022-10-31T09:21:20;100158.94;;;13.13
62845;BMP280;48929;47.910;20.390;2022-10-31T09:23:48;100155.84;;;13.11
62845;BMP280;48929;47.910;20.390;2022-10-31T09:26:17;100158.69;;;13.09
62845;BMP280;48929;47.910;20.390;2022-10-31T09:28:47;100167.25;;;13.10
62845;BMP280;48929;47.910;20.390;2022-10-31T09:31:15;100167.47;;;13.13
62845;BMP280;48929;47.910;20.390;2022-10-31T09:33:44;100172.91;;;13.17
62845;BMP280;48929;47.910;20.390;2022-10-31T09:36:13;100172.34;;;13.20
62845;BMP280;48929;47.910;20.390;2022-10-31T09:38:41;100170.25;;;13.22
62845;BMP280;48929;47.910;20.390;2022-10-31T09:41:18;100173.63;;;13.22
62845;BMP280;48929;47.910;20.390;2022-10-31T09:43:54;100168.44;;;13.22
62845;BMP280;48929;47.910;20.390;2022-10-31T09:46:32;100169.50;;;13.21
62845;BMP280;48929;47.910;20.390;2022-10-31T09:49:21;100159.44;;;13.15
62845;BMP280;48929;47.910;20.390;2022-10-31T09:51:55;100169.53;;;13.16
62845;BMP280;48929;47.910;20.390;2022-10-31T09:54:34;100160.72;;;13.17
62845;BMP280;48929;47.910;20.390;2022-10-31T09:57:05;100157.31;;;13.22
62845;BMP280;48929;47.910;20.390;2022-10-31T09:59:41;100158.56;;;13.24
62845;BMP280;48929;47.910;20.390;2022-10-31T10:02:16;100154.22;;;13.20
62845;BMP280;48929;47.910;20.390;2022-10-31T10:04:52;100159.41;;;13.20
62845;BMP280;48929;47.910;20.390;2022-10-31T10:07:28;100155.50;;;13.22
62845;BMP280;48929;47.910;20.390;2022-10-31T10:10:00;100156.47;;;13.26
62845;BMP280;48929;47.910;20.390;2022-10-31T10:12:40;100155.16;;;13.29
62845;BMP280;48929;47.910;20.390;2022-10-31T10:15:41;100152.84;;;13.27
62845;BMP280;48929;47.910;20.390;2022-10-31T10:18:26;100160.63;;;13.27
62845;BMP280;48929;47.910;20.390;2022-10-31T10:21:09;100152.59;;;13.29
62845;BMP280;48929;47.910;20.390;2022-10-31T10:23:50;100149.19;;;13.34
62845;BMP280;48929;47.910;20.390;2022-10-31T10:26:22;100153.03;;;13.36
62845;BMP280;48929;47.910;20.390;2022-10-31T10:28:57;100146.06;;;13.37
62845;BMP280;48929;47.910;20.390;2022-10-31T10:31:31;100147.59;;;13.38
62845;BMP280;48929;47.910;20.390;2022-10-31T10:34:17;100143.72;;;13.35
62845;BMP280;48929;47.910;20.390;2022-10-31T10:36:50;100139.59;;;13.34
62845;BMP280;48929;47.910;20.390;2022-10-31T10:39:23;100143.72;;;13.35
62845;BMP280;48929;47.910;20.390;2022-10-31T10:41:52;100146.06;;;13.37
62845;BMP280;48929;47.910;20.390;2022-10-31T10:44:44;100143.47;;;13.37
62845;BMP280;48929;47.910;20.390;2022-10-31T10:47:36;100150.19;;;13.38
62845;BMP280;48929;47.910;20.390;2022-10-31T10:50:13;100150.19;;;13.38
62845;BMP280;48929;47.910;20.390;2022-10-31T10:52:50;100149.63;;;13.41
62845;BMP280;48929;47.910;20.390;2022-10-31T10:55:33;100148.06;;;13.45
62845;BMP280;48929;47.910;20.390;2022-10-31T10:58:06;100142.34;;;13.48
62845;BMP280;48929;47.910;20.390;2022-10-31T11:00:41;100138.13;;;13.52
62845;BMP280;48929;47.910;20.390;2022-10-31T11:03:13;100132.94;;;13.52
62845;BMP280;48929;47.910;20.390;2022-10-31T11:05:44;100135.81;;;13.50
62845;BMP280;48929;47.910;20.390;2022-10-31T11:08:23;100139.19;;;13.51
62845;BMP280;48929;47.910;20.390;2022-10-31T11:10:59;100133.72;;;13.52
62845;BMP280;48929;47.910;20.390;2022-10-31T11:13:31;100133.44;;;13.54
62845;BMP280;48929;47.910;20.390;2022-10-31T11:16:03;100135.00;;;13.55
62845;BMP280;48929;47.910;20.390;2022-10-31T11:18:39;100123.31;;;13.57
62845;BMP280;48929;47.910;20.390;2022-10-31T11:21:25;100122.56;;;13.57
62845;BMP280;48929;47.910;20.390;2022-10-31T11:24:04;100121.28;;;13.54
62845;BMP280;48929;47.910;20.390;2022-10-31T11:26:41;100124.91;;;13.53
62845;BMP280;48929;47.910;20.390;2022-10-31T11:29:15;100130.84;;;13.54
62845;BMP280;48929;47.910;20.390;2022-10-31T11:31:45;100121.53;;;13.53
62845;BMP280;48929;47.910;20.390;2022-10-31T11:34:25;100124.63;;;13.55
62845;BMP280;48929;47.910;20.390;2022-10-31T11:36:57;100118.69;;;13.54
62845;BMP280;48929;47.910;20.390;2022-10-31T11:39:27;100118.16;;;13.57
62845;BMP280;48929;47.910;20.390;2022-10-31T11:42:00;100113.44;;;13.59
62845;BMP280;48929;47.910;20.390;2022-10-31T11:44:34;100111.63;;;13.60
62845;BMP280;48929;47.910;20.390;2022-10-31T11:47:04;100117.31;;;13.62
62845;BMP280;48929;47.910;20.390;2022-10-31T11:49:37;100112.66;;;13.64
62845;BMP280;48929;47.910;20.390;2022-10-31T11:52:07;100115.72;;;13.66
62845;BMP280;48929;47.910;20.390;2022-10-31T11:54:41;100113.91;;;13.66
62845;BMP280;48929;47.910;20.390;2022-10-31T11:57:22;100107.69;;;13.67
62845;BMP280;48929;47.910;20.390;2022-10-31T11:59:52;100114.41;;;13.68
62845;BMP280;48929;47.910;20.390;2022-10-31T12:02:21;100114.41;;;13.68
62845;BMP280;48929;47.910;20.390;2022-10-31T12:04:58;100110.47;;;13.71
62845;BMP280;48929;47.910;20.390;2022-10-31T12:07:29;100109.22;;;13.68
62845;BMP280;48929;47.910;20.390;2022-10-31T12:09:58;100109.22;;;13.68
62845;BMP280;48929;47.910;20.390;2022-10-31T12:12:44;100113.63;;;13.68
62845;BMP280;48929;47.910;20.390;2022-10-31T12:15:30;100112.84;;;13.67
62845;BMP280;48929;47.910;20.390;2022-10-31T12:18:20;100111.56;;;13.65
62845;BMP280;48929;47.910;20.390;2022-10-31T12:21:04;100108.97;;;13.65
62845;BMP280;48929;47.910;20.390;2022-10-31T12:23:45;100111.31;;;13.66
62845;BMP280;48929;47.910;20.390;2022-10-31T12:26:22;100112.84;;;13.67
62845;BMP280;48929;47.910;20.390;2022-10-31T12:29:13;100114.13;;;13.70
62845;BMP280;48929;47.910;20.390;2022-10-31T12:31:51;100113.63;;;13.68
62845;BMP280;48929;47.910;20.390;2022-10-31T12:34:47;100110.00;;;13.69
62845;BMP280;48929;47.910;20.390;2022-10-31T12:37:29;100114.41;;;13.68
62845;BMP280;48929;47.910;20.390;2022-10-31T12:40:11;100107.69;;;13.67
62845;BMP280;48929;47.910;20.390;2022-10-31T12:42:52;100109.50;;;13.67
62845;BMP280;48929;47.910;20.390;2022-10-31T12:45:41;100111.31;;;13.66
62845;BMP280;48929;47.910;20.390;2022-10-31T12:48:20;100111.56;;;13.65
62845;BMP280;48929;47.910;20.390;2022-10-31T12:50:58;100108.78;;;13.61
62845;BMP280;48929;47.910;20.390;2022-10-31T12:53:40;100108.25;;;13.59
62845;BMP280;48929;47.910;20.390;2022-10-31T12:56:23;100110.06;;;13.59
62845;BMP280;48929;47.910;20.390;2022-10-31T12:59:02;100105.19;;;13.57
62845;BMP280;48929;47.910;20.390;2022-10-31T13:01:35;100103.66;;;13.56
62845;BMP280;48929;47.910;20.390;2022-10-31T13:04:12;100105.47;;;13.56
62845;BMP280;48929;47.910;20.390;2022-10-31T13:06:47;100098.47;;;13.56
62845;BMP280;48929;47.910;20.390;2022-10-31T13:09:22;100110.66;;;13.56
62845;BMP280;48929;47.910;20.390;2022-10-31T13:11:55;100104.69;;;13.55
62845;BMP280;48929;47.910;20.390;2022-10-31T13:14:27;100105.47;;;13.56
62845;BMP280;48929;47.910;20.390;2022-10-31T13:16:59;100104.41;;;13.57
62845;BMP280;48929;47.910;20.390;2022-10-31T13:19:35;100102.09;;;13.55
62845;BMP280;48929;47.910;20.390;2022-10-31T13:22:06;100101.16;;;13.46
62845;BMP280;48929;47.910;20.390;2022-10-31T13:24:55;100098.88;;;13.45
62845;BMP280;48929;47.910;20.390;2022-10-31T13:27:29;100097.81;;;13.46
62845;BMP280;48929;47.910;20.390;2022-10-31T13:30:03;100098.00;;;13.49
62845;BMP280;48929;47.910;20.390;2022-10-31T13:32:39;100103.19;;;13.49
62845;BMP280;48929;47.910;20.390;2022-10-31T13:35:16;100100.91;;;13.48
62845;BMP280;48929;47.910;20.390;2022-10-31T13:37:51;100093.13;;;13.48
62845;BMP280;48929;47.910;20.390;2022-10-31T13:40:35;100097.31;;;13.44
62845;BMP280;48929;47.910;20.390;2022-10-31T13:43:12;100101.22;;;13.41
62845;BMP280;48929;47.910;20.390;2022-10-31T13:45:50;100099.41;;;13.42
62845;BMP280;48929;47.910;20.390;2022-10-31T13:48:39;100107.16;;;13.42
62845;BMP280;48929;47.910;20.390;2022-10-31T13:51:10;100096.81;;;13.42
62845;BMP280;48929;47.910;20.390;2022-10-31T13:53:44;100105.63;;;13.41
62845;BMP280;48929;47.910;20.390;2022-10-31T13:56:23;100108.97;;;13.41
62845;BMP280;48929;47.910;20.390;2022-10-31T13:59:12;100105.09;;;13.39
62845;BMP280;48929;47.910;20.390;2022-10-31T14:01:49;100110.59;;;13.37
62845;BMP280;48929;47.910;20.390;2022-10-31T14:04:20;100110.34;;;13.34
62845;BMP280;48929;47.910;20.390;2022-10-31T14:06:57;100112.72;;;13.30
62845;BMP280;48929;47.910;20.390;2022-10-31T14:09:32;100107.28;;;13.26
62845;BMP280;48929;47.910;20.390;2022-10-31T14:12:08;100110.16;;;13.25
62845;BMP280;48929;47.910;20.390;2022-10-31T14:14:45;100110.72;;;13.22
62845;BMP280;48929;47.910;20.390;2022-10-31T14:17:19;100112.03;;;13.19
62845;BMP280;48929;47.910;20.390;2022-10-31T14:20:00;100111.28;;;13.19